Terminal Aerodrome Forecast
Issued by NWS

Home | Current Version | Previous Version | Text Only | Print | Product List | Glossary On
Versions: 1 2 3 4 5 6 7 8 9 10 11 12 13 14 15 16 17 18 19 20 21 22 23 24 25
000
FTUS42 KILM 220528
TAFCRE
TAF
KCRE 220528Z 2206/2306 19004KT 3SM BR SCT008
     FM220700 18004KT 1/2SM FG SKC
      TEMPO 2208/2212 1/4SM FG VV002
     FM221300 18003KT 4SM BR SCT008 BKN015
     FM221500 18006KT P6SM SCT025
     FM230200 20004KT 6SM BR SKC=

USA.gov is the U.S. government's official web portal to all federal, state and local government web resources and services.